Airfield :
LOGIN :

Register | Disclaimer

   EN    FR    IT 

 










Legend :    VFR   Marginal VFR   IFR   Intensive IFR   Very Intensive IFR
Visi :
Ceiling :
>= 8 km
>= 3000ft
5 to 8 km
1000 to 3000 ft
1500m to 5 km
500 to 1000 ft
800 to 1500m
200 to 500 ft
< 800m
< 200 ft
Symbols :   Thunderstorms  Fog  Heavy snow  Heavy precipitations  Wind > 20 kt
SIGMETs :     Misc.  Thunderstorms  Icing  Turbulence  Mountain Waves  Volcanic Ashes







- Airport Elevation : 755 ft
- IATA code : DRS


EDDC - Dresden Klotzsche

CURRENT METAR :
  • 262350Z 32006KT 9999 -RA FEW010 SCT048 04/02 Q1027

EXPIRED METARs :
  • 262320Z 31006KT 9999 SCT010 BKN048 04/03 Q1027
  • 262250Z 32006KT 9999 SCT010 BKN048 05/03 Q1026
  • 262220Z 32007KT 9999 FEW009 BKN048 05/03 Q1026
  • 262150Z 31010KT 280V340 9999 FEW009 BKN040 05/03 Q1026
  • 262120Z 31007KT 280V340 9999 -RA BKN016 BKN040 05/03 Q1026

TAF TAF EDDC
Valid from the 27 at 00:00 until the 28 at 00:00 UTC


262300Z 2700/2724 28008KT 9999 SCT010 BKN015
TEMPO 2700/2708 4500 -DZ BR BKN006
BECMG 2701/2705 BKN010
PROB30
TEMPO 2702/2707 2500 -DZ BKN004
BECMG 2708/2711 BKN015
No reported NOTAMs for that airfield.



MET'MAP, your aeronautical weather chart ! - Copyright ORBIFLY December 2007 - Disclaimer

ORBIFLY MET'MAP TEAM :

Programming & Development : Alexandra Zaïnal
Concept & Development : Baudouin d'Aumeries
Co-Development & Prog : Marc-Olivier Méhu
Technical & hardware support : Manuel Goepfert

Contact : metmap@orbifly.com




SOURCES & CREDITS :

   NOAA